createdAt,value
2023-04-26T00:00:11.104Z,59.50
2023-04-26T00:01:14.757Z,60.00
2023-04-26T00:02:18.018Z,60.02
2023-04-26T00:03:20.797Z,59.24
2023-04-26T00:04:22.650Z,58.96
2023-04-26T00:05:26.026Z,59.01
2023-04-26T00:06:27.595Z,59.93
2023-04-26T00:07:30.642Z,60.35
2023-04-26T00:08:32.131Z,60.25
2023-04-26T00:09:33.670Z,60.38
2023-04-26T00:10:35.182Z,61.47
2023-04-26T00:11:36.672Z,60.65
2023-04-26T00:12:38.187Z,59.89
2023-04-26T00:13:39.941Z,59.98
2023-04-26T00:14:41.631Z,59.89
2023-04-26T00:15:43.192Z,59.24
2023-04-26T00:16:44.785Z,59.36
2023-04-26T00:17:46.438Z,59.00
2023-04-26T00:18:49.350Z,58.51
2023-04-26T00:19:51.153Z,58.31
2023-04-26T00:20:52.674Z,57.90
2023-04-26T00:21:54.188Z,58.14
2023-04-26T00:22:55.615Z,57.73
2023-04-26T00:23:57.721Z,58.16
2023-04-26T00:24:59.260Z,58.18
2023-04-26T00:26:00.823Z,58.02
2023-04-26T00:27:05.381Z,58.15
2023-04-26T00:28:06.864Z,58.33
2023-04-26T00:29:08.346Z,58.57
2023-04-26T00:30:10.668Z,58.68
2023-04-26T00:31:16.156Z,58.09
2023-04-26T00:32:18.069Z,57.55
2023-04-26T00:33:19.536Z,57.31
2023-04-26T00:34:23.689Z,57.39
2023-04-26T00:35:26.791Z,57.65
2023-04-26T00:36:28.373Z,57.87
2023-04-26T00:37:29.977Z,57.87
2023-04-26T00:38:31.694Z,58.04
2023-04-26T00:39:33.355Z,58.01
2023-04-26T00:40:35.540Z,58.11
2023-04-26T00:41:37.438Z,57.77
2023-04-26T00:42:39.945Z,57.76
2023-04-26T00:43:41.505Z,57.33
2023-04-26T00:44:42.997Z,57.25
2023-04-26T00:45:45.029Z,58.17
2023-04-26T00:46:47.025Z,58.06
2023-04-26T00:47:48.560Z,58.36
2023-04-26T00:48:51.016Z,58.29
2023-04-26T00:49:53.226Z,58.40
2023-04-26T00:50:55.526Z,58.39
2023-04-26T00:51:58.048Z,58.20
2023-04-26T00:53:00.595Z,58.27
2023-04-26T00:54:02.105Z,58.81
2023-04-26T00:55:03.645Z,59.09
2023-04-26T00:56:09.102Z,59.50
2023-04-26T00:57:12.246Z,59.51
2023-04-26T00:58:13.755Z,60.01
2023-04-26T00:59:15.199Z,59.99
2023-04-26T01:00:16.954Z,58.86
2023-04-26T01:01:18.490Z,58.53
2023-04-26T01:02:20.206Z,59.09
2023-04-26T01:03:22.022Z,57.89
2023-04-26T01:04:27.587Z,57.74
2023-04-26T01:05:29.156Z,57.63
2023-04-26T01:06:34.552Z,57.84
2023-04-26T01:07:37.534Z,57.59
2023-04-26T01:08:38.925Z,57.32
2023-04-26T01:09:40.564Z,57.75
2023-04-26T01:10:42.127Z,57.83
2023-04-26T01:11:43.906Z,58.17
2023-04-26T01:12:45.901Z,58.06
2023-04-26T01:13:48.273Z,58.02
2023-04-26T01:14:50.008Z,58.22
2023-04-26T01:15:52.147Z,57.95
2023-04-26T01:16:53.729Z,58.42
2023-04-26T01:17:55.326Z,58.75
2023-04-26T01:18:57.894Z,58.84
2023-04-26T01:19:59.358Z,58.28
2023-04-26T01:21:03.213Z,58.53
2023-04-26T01:22:05.034Z,58.30
2023-04-26T01:23:07.327Z,58.69
2023-04-26T01:24:10.192Z,58.76
2023-04-26T01:25:12.520Z,58.72
2023-04-26T01:26:14.042Z,58.32
2023-04-26T01:27:16.753Z,57.96
2023-04-26T01:28:18.246Z,58.23
2023-04-26T01:29:21.444Z,58.69
2023-04-26T01:30:22.960Z,58.30
2023-04-26T01:31:24.531Z,58.87
2023-04-26T01:32:26.405Z,59.32
2023-04-26T01:33:27.855Z,59.25
2023-04-26T01:34:29.358Z,60.22
2023-04-26T01:35:30.840Z,59.96
2023-04-26T01:36:32.577Z,60.22
2023-04-26T01:37:34.023Z,59.91
2023-04-26T01:38:35.513Z,60.00
2023-04-26T01:39:37.078Z,59.94
2023-04-26T01:40:38.572Z,60.46
2023-04-26T01:41:40.064Z,60.87
2023-04-26T01:42:41.580Z,61.71
2023-04-26T01:43:43.037Z,61.97
2023-04-26T01:44:44.776Z,61.80
2023-04-26T01:45:49.414Z,62.34
2023-04-26T01:46:51.015Z,62.23
2023-04-26T01:47:52.656Z,63.36
2023-04-26T01:48:54.457Z,62.98
2023-04-26T01:49:56.193Z,63.63
2023-04-26T01:50:57.647Z,63.57
2023-04-26T01:51:59.723Z,63.38
2023-04-26T01:53:01.328Z,63.04
2023-04-26T01:54:03.134Z,62.57
2023-04-26T01:55:05.217Z,62.76
2023-04-26T01:56:07.168Z,62.90
2023-04-26T01:57:08.703Z,62.96
2023-04-26T01:58:10.166Z,62.51
2023-04-26T01:59:11.643Z,62.28
2023-04-26T02:00:13.366Z,62.38
2023-04-26T02:01:14.917Z,61.87
2023-04-26T02:02:18.520Z,62.42
2023-04-26T02:03:20.171Z,62.46
2023-04-26T02:04:21.812Z,62.99
2023-04-26T02:05:24.405Z,63.58
2023-04-26T02:06:26.762Z,64.21
2023-04-26T02:07:28.258Z,63.95
2023-04-26T02:08:30.113Z,63.48
2023-04-26T02:09:31.562Z,63.54
2023-04-26T02:10:33.620Z,63.52
2023-04-26T02:11:35.846Z,63.61
2023-04-26T02:12:37.483Z,63.34
2023-04-26T02:13:39.140Z,63.12
2023-04-26T02:14:40.583Z,63.29
2023-04-26T02:15:46.747Z,62.84
2023-04-26T02:16:48.220Z,63.50
2023-04-26T02:17:49.848Z,63.32
2023-04-26T02:18:53.775Z,64.01
2023-04-26T02:19:56.820Z,64.36
2023-04-26T02:20:58.292Z,64.40
2023-04-26T02:21:59.867Z,64.60
2023-04-26T02:23:01.385Z,63.52
2023-04-26T02:24:02.946Z,63.81
2023-04-26T02:25:05.430Z,64.14
2023-04-26T02:26:06.872Z,63.90
2023-04-26T02:27:08.308Z,63.76
2023-04-26T02:28:09.863Z,63.86
2023-04-26T02:29:11.447Z,63.86
2023-04-26T02:30:13.155Z,63.90
2023-04-26T02:31:15.312Z,64.06
2023-04-26T02:32:16.855Z,63.38
2023-04-26T02:33:18.376Z,63.51
2023-04-26T02:34:19.913Z,63.62
2023-04-26T02:35:21.974Z,63.55
2023-04-26T02:36:23.440Z,63.82
2023-04-26T02:37:25.143Z,63.67
2023-04-26T02:38:27.375Z,63.90
2023-04-26T02:39:28.855Z,63.49
2023-04-26T02:40:30.611Z,63.40
2023-04-26T02:41:32.992Z,64.26
2023-04-26T02:42:34.405Z,63.81
2023-04-26T02:43:35.937Z,63.95
2023-04-26T02:44:39.495Z,63.69
2023-04-26T02:45:43.306Z,64.46
2023-04-26T02:46:44.819Z,63.97
2023-04-26T02:47:46.318Z,64.37
2023-04-26T02:48:47.811Z,64.67
2023-04-26T02:49:49.613Z,64.25
2023-04-26T02:50:51.433Z,64.55
2023-04-26T02:51:53.215Z,64.34
2023-04-26T02:52:54.656Z,64.49
2023-04-26T02:53:56.167Z,64.90
2023-04-26T02:54:57.890Z,64.15
2023-04-26T02:56:00.960Z,64.18
2023-04-26T02:57:02.348Z,63.84
2023-04-26T02:58:03.697Z,64.65
2023-04-26T02:59:05.274Z,64.82
2023-04-26T03:00:08.602Z,64.59
2023-04-26T03:01:10.515Z,64.09
2023-04-26T03:02:12.101Z,64.54
2023-04-26T03:03:14.510Z,64.51
2023-04-26T03:04:17.804Z,64.52
2023-04-26T03:05:20.481Z,63.87
2023-04-26T03:06:21.910Z,64.47
2023-04-26T03:07:23.411Z,64.79
2023-04-26T03:08:24.969Z,64.98
2023-04-26T03:09:26.748Z,64.97
2023-04-26T03:10:28.634Z,65.21
2023-04-26T03:11:30.042Z,65.19
2023-04-26T03:12:31.547Z,65.21
2023-04-26T03:13:32.993Z,64.61
2023-04-26T03:14:35.193Z,64.38
2023-04-26T03:15:36.666Z,65.54
2023-04-26T03:16:43.253Z,65.68
2023-04-26T03:17:44.890Z,64.71
2023-04-26T03:18:46.466Z,65.00
2023-04-26T03:19:47.955Z,65.35
2023-04-26T03:20:50.336Z,65.09
2023-04-26T03:21:51.918Z,64.86
2023-04-26T03:22:53.453Z,64.85
2023-04-26T03:23:54.912Z,64.84
2023-04-26T03:24:57.080Z,65.31
2023-04-26T03:25:58.910Z,65.00
2023-04-26T03:27:00.392Z,64.40
2023-04-26T03:28:01.851Z,64.95
2023-04-26T03:29:03.786Z,65.49
2023-04-26T03:30:06.013Z,65.82
2023-04-26T03:31:07.560Z,65.96
2023-04-26T03:32:09.198Z,65.66
2023-04-26T03:33:10.655Z,65.43
2023-04-26T03:34:12.142Z,65.99
2023-04-26T03:35:13.594Z,66.12
2023-04-26T03:36:15.258Z,65.54
2023-04-26T03:37:16.784Z,65.33
2023-04-26T03:38:18.270Z,65.83
2023-04-26T03:39:19.899Z,65.37
2023-04-26T03:40:21.651Z,65.39
2023-04-26T03:41:23.566Z,65.61
2023-04-26T03:42:25.047Z,65.20
2023-04-26T03:43:26.744Z,65.34
2023-04-26T03:44:29.299Z,64.87
2023-04-26T03:45:32.802Z,65.40
2023-04-26T03:46:34.354Z,65.10
2023-04-26T03:47:35.886Z,65.15
2023-04-26T03:48:37.363Z,65.70
2023-04-26T03:49:38.856Z,65.70
2023-04-26T03:50:40.387Z,66.21
2023-04-26T03:51:42.209Z,65.51
2023-04-26T03:52:44.169Z,65.76
2023-04-26T03:53:46.837Z,65.96
2023-04-26T03:54:48.472Z,65.47
2023-04-26T03:55:50.535Z,65.86
2023-04-26T03:56:51.961Z,65.86
2023-04-26T03:57:54.027Z,65.74
2023-04-26T03:58:55.539Z,65.80
2023-04-26T03:59:57.077Z,65.50
2023-04-26T04:00:58.901Z,65.53
2023-04-26T04:02:00.982Z,66.25
2023-04-26T04:03:02.915Z,66.83
2023-04-26T04:04:04.976Z,65.82
2023-04-26T04:05:06.933Z,65.63
2023-04-26T04:06:08.788Z,65.66
2023-04-26T04:07:10.465Z,65.71
2023-04-26T04:08:12.063Z,66.03
2023-04-26T04:09:13.654Z,65.59
2023-04-26T04:10:16.439Z,65.22
2023-04-26T04:11:18.431Z,65.74
2023-04-26T04:12:20.043Z,65.82
2023-04-26T04:13:22.096Z,65.47
2023-04-26T04:14:23.770Z,65.91
2023-04-26T04:15:25.515Z,65.74
2023-04-26T04:16:27.748Z,66.22
2023-04-26T04:17:29.375Z,65.90
2023-04-26T04:18:31.080Z,66.13
2023-04-26T04:19:32.769Z,66.03
2023-04-26T04:20:34.365Z,66.82
2023-04-26T04:21:36.380Z,67.28
2023-04-26T04:22:39.795Z,66.30
2023-04-26T04:23:42.383Z,66.32
2023-04-26T04:24:44.379Z,65.88
2023-04-26T04:25:47.604Z,66.08
2023-04-26T04:26:49.618Z,65.80
2023-04-26T04:27:53.464Z,65.36
2023-04-26T04:28:55.473Z,66.19
2023-04-26T04:29:57.021Z,65.98
2023-04-26T04:30:58.619Z,66.37
2023-04-26T04:32:00.178Z,66.10
2023-04-26T04:33:03.178Z,65.75
2023-04-26T04:34:04.734Z,66.64
2023-04-26T04:35:07.458Z,66.27
2023-04-26T04:36:09.685Z,66.23
2023-04-26T04:37:11.883Z,66.58
2023-04-26T04:38:14.226Z,66.60
2023-04-26T04:39:17.233Z,66.03
2023-04-26T04:40:18.640Z,66.28
2023-04-26T04:41:23.944Z,65.88
2023-04-26T04:42:27.195Z,66.11
2023-04-26T04:43:28.832Z,66.36
2023-04-26T04:44:30.433Z,66.11
2023-04-26T04:45:31.868Z,66.07
2023-04-26T04:46:33.500Z,65.58
2023-04-26T04:47:37.724Z,65.49
2023-04-26T04:48:39.232Z,65.69
2023-04-26T04:49:41.787Z,65.38
2023-04-26T04:50:43.238Z,65.96
2023-04-26T04:51:45.250Z,66.12
2023-04-26T04:52:46.991Z,65.41
2023-04-26T04:53:48.493Z,66.19
2023-04-26T04:54:49.950Z,65.67
2023-04-26T04:55:51.773Z,65.51
2023-04-26T04:56:53.246Z,65.54
2023-04-26T04:57:54.707Z,65.61
2023-04-26T04:58:56.263Z,65.88
2023-04-26T04:59:58.431Z,66.47
2023-04-26T05:01:01.647Z,65.56
2023-04-26T05:02:03.210Z,65.33
2023-04-26T05:03:05.209Z,65.33
2023-04-26T05:04:07.684Z,64.66
2023-04-26T05:05:11.001Z,64.82
2023-04-26T05:06:12.551Z,65.45
2023-04-26T05:07:15.727Z,65.51
2023-04-26T05:08:17.185Z,65.43
2023-04-26T05:09:18.592Z,65.34
2023-04-26T05:10:20.146Z,64.72
2023-04-26T05:11:22.189Z,64.75
2023-04-26T05:12:23.758Z,64.69
2023-04-26T05:13:25.260Z,64.82
2023-04-26T05:14:27.077Z,65.78
2023-04-26T05:15:28.494Z,66.52
2023-04-26T05:16:30.045Z,66.63
2023-04-26T05:17:33.767Z,66.73
2023-04-26T05:18:35.512Z,67.33
2023-04-26T05:19:37.082Z,66.46
2023-04-26T05:20:39.059Z,65.86
2023-04-26T05:21:40.613Z,65.50
2023-04-26T05:22:42.150Z,65.00
2023-04-26T05:23:43.774Z,65.00
2023-04-26T05:24:47.183Z,65.15
2023-04-26T05:25:48.710Z,64.81
2023-04-26T05:26:50.315Z,65.03
2023-04-26T05:27:51.808Z,65.32
2023-04-26T05:28:53.339Z,65.81
2023-04-26T05:29:54.890Z,66.30
2023-04-26T05:30:56.787Z,66.56
2023-04-26T05:31:58.316Z,66.02
2023-04-26T05:32:59.930Z,65.53
2023-04-26T05:34:01.393Z,65.53
2023-04-26T05:35:02.915Z,65.71
2023-04-26T05:36:04.794Z,65.26
2023-04-26T05:37:06.860Z,65.18
2023-04-26T05:38:09.041Z,65.25
2023-04-26T05:39:10.682Z,65.26
2023-04-26T05:40:12.522Z,64.93
2023-04-26T05:41:14.298Z,65.03
2023-04-26T05:42:17.828Z,64.39
2023-04-26T05:43:19.725Z,63.95
2023-04-26T05:44:21.224Z,63.60
2023-04-26T05:45:23.269Z,62.96
2023-04-26T05:46:24.938Z,63.38
2023-04-26T05:47:26.542Z,63.29
2023-04-26T05:48:28.116Z,62.99
2023-04-26T05:49:29.615Z,63.04
2023-04-26T05:50:31.718Z,62.71
2023-04-26T05:51:33.135Z,62.74
2023-04-26T05:52:34.622Z,62.40
2023-04-26T05:53:36.107Z,62.53
2023-04-26T05:54:37.740Z,62.47
2023-04-26T05:55:39.880Z,62.25
2023-04-26T05:56:41.351Z,62.95
2023-04-26T05:57:42.779Z,62.24
2023-04-26T05:58:44.406Z,61.49
2023-04-26T05:59:46.497Z,61.78
2023-04-26T06:00:48.377Z,61.89
2023-04-26T06:01:49.862Z,61.04
2023-04-26T06:02:51.861Z,62.22
2023-04-26T06:03:55.931Z,61.85
2023-04-26T06:04:59.791Z,61.41
2023-04-26T06:06:02.031Z,60.99
2023-04-26T06:07:03.567Z,60.81
2023-04-26T06:08:05.716Z,61.19
2023-04-26T06:09:07.202Z,61.25
2023-04-26T06:10:09.031Z,61.53
2023-04-26T06:11:10.755Z,61.02
2023-04-26T06:12:12.174Z,60.78
2023-04-26T06:13:13.760Z,60.53
2023-04-26T06:14:29.598Z,59.49
2023-04-26T06:15:32.458Z,59.52
2023-04-26T06:16:33.964Z,58.67
2023-04-26T06:17:35.798Z,59.87
2023-04-26T06:18:37.316Z,59.84
2023-04-26T06:19:38.814Z,59.15
2023-04-26T06:20:40.377Z,59.02
2023-04-26T06:21:41.894Z,58.66
2023-04-26T06:22:43.332Z,58.35
2023-04-26T06:23:44.769Z,58.18
2023-04-26T06:24:46.193Z,58.13
2023-04-26T06:25:47.720Z,57.49
2023-04-26T06:26:51.651Z,57.68
2023-04-26T06:27:53.919Z,57.66
2023-04-26T06:28:55.400Z,56.95
2023-04-26T06:29:57.048Z,56.70
2023-04-26T06:30:58.620Z,56.42
2023-04-26T06:32:00.373Z,56.64
2023-04-26T06:33:02.096Z,56.86
2023-04-26T06:34:03.717Z,56.38
2023-04-26T06:35:05.480Z,56.50
2023-04-26T06:36:11.570Z,56.29
2023-04-26T06:37:13.091Z,56.22
2023-04-26T06:38:14.509Z,56.63
2023-04-26T06:39:17.248Z,55.87
2023-04-26T06:40:18.829Z,55.52
2023-04-26T06:41:22.200Z,55.11
2023-04-26T06:42:23.767Z,54.46
2023-04-26T06:43:25.295Z,54.90
2023-04-26T06:44:26.749Z,54.58
2023-04-26T06:45:28.282Z,53.51
2023-04-26T06:46:29.821Z,53.24
2023-04-26T06:47:31.564Z,53.23
2023-04-26T06:48:33.239Z,52.30
2023-04-26T06:49:35.742Z,52.04
2023-04-26T06:50:40.247Z,51.69
2023-04-26T06:51:41.809Z,50.74
2023-04-26T06:52:43.227Z,50.81
2023-04-26T06:53:44.652Z,50.38
2023-04-26T06:54:56.602Z,50.38
2023-04-26T06:55:59.150Z,49.63
2023-04-26T06:57:01.627Z,49.81
2023-04-26T06:58:03.153Z,50.16
2023-04-26T06:59:06.975Z,49.69
2023-04-26T07:00:09.832Z,48.94
2023-04-26T07:01:11.316Z,47.57
2023-04-26T07:02:13.922Z,47.78
2023-04-26T07:03:17.194Z,48.97
2023-04-26T07:04:20.800Z,48.43
2023-04-26T07:05:23.018Z,47.64
2023-04-26T07:06:26.253Z,46.51
2023-04-26T07:07:27.732Z,46.02
2023-04-26T07:08:29.232Z,46.55
2023-04-26T07:09:30.737Z,46.30
2023-04-26T07:10:33.975Z,46.49
2023-04-26T07:11:35.891Z,46.53
2023-04-26T07:12:37.511Z,46.05
2023-04-26T07:13:41.805Z,45.07
2023-04-26T07:14:43.458Z,44.39
2023-04-26T07:15:45.327Z,45.28
2023-04-26T07:16:46.831Z,44.80
2023-04-26T07:17:48.328Z,46.14
2023-04-26T07:18:49.956Z,46.17
2023-04-26T07:19:52.244Z,45.45
2023-04-26T07:20:53.956Z,45.72
2023-04-26T07:21:55.502Z,45.32
2023-04-26T07:22:56.972Z,44.01
2023-04-26T07:23:58.818Z,42.64
2023-04-26T07:25:00.727Z,43.33
2023-04-26T07:26:04.367Z,43.91
2023-04-26T07:27:05.957Z,43.22
2023-04-26T07:28:08.621Z,42.86
2023-04-26T07:29:10.830Z,43.26
2023-04-26T07:30:12.581Z,43.11
2023-04-26T07:31:14.217Z,42.93
2023-04-26T07:32:16.240Z,43.84
2023-04-26T07:33:17.937Z,44.61
2023-04-26T07:34:20.074Z,44.20
2023-04-26T07:35:21.761Z,43.82
2023-04-26T07:36:24.529Z,42.47
2023-04-26T07:37:26.711Z,42.46
2023-04-26T07:38:28.249Z,42.85
2023-04-26T07:39:30.097Z,42.19
2023-04-26T07:40:31.747Z,41.00
2023-04-26T07:41:33.383Z,40.69
2023-04-26T07:42:34.833Z,40.69
2023-04-26T07:43:36.301Z,40.29
2023-04-26T07:44:38.090Z,39.51
2023-04-26T07:45:39.567Z,39.49
2023-04-26T07:46:41.314Z,40.03
2023-04-26T07:47:42.845Z,40.74
2023-04-26T07:48:44.348Z,41.07
2023-04-26T07:49:47.727Z,41.69
2023-04-26T07:50:49.399Z,40.96
2023-04-26T07:51:52.147Z,39.88
2023-04-26T07:52:53.585Z,40.28
2023-04-26T07:53:57.831Z,40.78
2023-04-26T07:54:59.265Z,41.13
2023-04-26T07:56:01.003Z,40.77
2023-04-26T07:57:02.627Z,40.87
2023-04-26T07:58:04.515Z,40.85
2023-04-26T07:59:06.368Z,40.57
2023-04-26T08:00:10.278Z,39.73
2023-04-26T08:01:13.133Z,38.63
2023-04-26T08:02:16.978Z,38.86
2023-04-26T08:03:18.788Z,38.96
2023-04-26T08:04:30.418Z,39.12
2023-04-26T08:05:32.264Z,39.09
2023-04-26T08:06:34.051Z,39.54
2023-04-26T08:07:35.495Z,40.15
2023-04-26T08:08:44.823Z,40.19
2023-04-26T08:09:46.804Z,40.50
2023-04-26T08:10:48.554Z,40.55
2023-04-26T08:11:50.041Z,39.50
2023-04-26T08:12:51.699Z,39.66
2023-04-26T08:13:53.318Z,39.57
2023-04-26T08:14:54.994Z,40.25
2023-04-26T08:15:56.491Z,39.32
2023-04-26T08:16:57.997Z,38.91
2023-04-26T08:17:59.528Z,39.48
2023-04-26T08:19:03.181Z,38.96
2023-04-26T08:20:06.134Z,39.54
2023-04-26T08:21:07.899Z,39.71
2023-04-26T08:22:09.381Z,40.20
2023-04-26T08:23:11.148Z,38.94
2023-04-26T08:24:13.027Z,39.12
2023-04-26T08:25:15.690Z,39.28
2023-04-26T08:26:17.165Z,38.94
2023-04-26T08:27:19.224Z,38.60
2023-04-26T08:28:21.662Z,39.03
2023-04-26T08:29:23.276Z,39.72
2023-04-26T08:30:24.866Z,39.35
2023-04-26T08:31:27.235Z,39.04
2023-04-26T08:32:28.761Z,38.29
2023-04-26T08:33:30.703Z,38.24
2023-04-26T08:34:32.786Z,38.17
2023-04-26T08:35:34.714Z,36.88
2023-04-26T08:36:40.106Z,35.98
2023-04-26T08:37:41.568Z,35.25
2023-04-26T08:38:43.022Z,35.38
2023-04-26T08:39:44.503Z,35.42
2023-04-26T08:40:47.286Z,34.89
2023-04-26T08:41:57.421Z,35.20
2023-04-26T08:42:58.954Z,35.72
2023-04-26T08:44:01.613Z,36.56
2023-04-26T08:45:03.464Z,37.84
2023-04-26T08:46:10.982Z,37.80
2023-04-26T08:47:24.508Z,37.62
2023-04-26T08:48:28.539Z,37.90
2023-04-26T08:49:36.127Z,38.33
2023-04-26T08:50:39.360Z,37.23
2023-04-26T08:51:41.677Z,37.80
2023-04-26T08:52:44.570Z,38.05
2023-04-26T08:53:48.623Z,36.90
2023-04-26T08:54:51.958Z,37.26
2023-04-26T08:55:54.214Z,36.63
2023-04-26T08:56:59.673Z,36.83
2023-04-26T08:58:01.992Z,36.28
2023-04-26T08:59:03.633Z,36.51
2023-04-26T09:00:06.564Z,37.34
2023-04-26T09:01:09.064Z,37.17
2023-04-26T09:02:13.178Z,37.15
2023-04-26T09:03:14.919Z,35.83
2023-04-26T09:04:17.393Z,35.36
2023-04-26T09:05:26.742Z,35.46
2023-04-26T09:06:28.541Z,35.66
2023-04-26T09:07:32.763Z,36.52
2023-04-26T09:08:36.952Z,37.29
2023-04-26T09:09:42.885Z,37.35
2023-04-26T09:10:44.884Z,37.37
2023-04-26T09:11:57.734Z,37.49
2023-04-26T09:12:59.230Z,37.13
2023-04-26T09:14:01.273Z,37.81
2023-04-26T09:15:04.543Z,38.34
2023-04-26T09:16:06.377Z,37.97
2023-04-26T09:17:28.476Z,37.99
2023-04-26T09:18:31.372Z,38.18
2023-04-26T09:19:44.475Z,38.53
2023-04-26T09:20:46.367Z,38.56
2023-04-26T09:21:47.857Z,39.17
2023-04-26T09:22:54.804Z,39.14
2023-04-26T09:24:04.636Z,40.19
2023-04-26T09:25:07.180Z,39.08
2023-04-26T09:26:20.576Z,39.70
2023-04-26T09:27:22.289Z,38.52
2023-04-26T09:28:24.147Z,38.16
2023-04-26T09:29:25.604Z,37.27
2023-04-26T09:30:28.317Z,37.00
2023-04-26T09:31:49.597Z,37.62
2023-04-26T09:32:58.201Z,38.51
2023-04-26T09:34:00.954Z,38.50
2023-04-26T09:35:02.427Z,36.36
2023-04-26T09:36:13.451Z,37.28
2023-04-26T09:37:15.001Z,37.55
2023-04-26T09:38:18.264Z,38.59
2023-04-26T09:39:37.274Z,37.56
2023-04-26T09:40:41.375Z,37.54
2023-04-26T09:41:44.932Z,37.94
2023-04-26T09:42:46.626Z,36.09
2023-04-26T09:43:51.152Z,35.70
2023-04-26T09:44:55.379Z,35.75
2023-04-26T09:45:58.810Z,36.35
2023-04-26T09:47:03.629Z,36.15
2023-04-26T09:48:32.058Z,37.11
2023-04-26T09:49:51.456Z,38.96
2023-04-26T09:50:55.065Z,37.54
2023-04-26T09:52:00.882Z,35.97
2023-04-26T09:53:02.725Z,37.31
2023-04-26T09:54:04.278Z,37.25
2023-04-26T09:55:06.265Z,36.67
2023-04-26T09:56:10.660Z,35.50
2023-04-26T09:57:16.717Z,35.02
2023-04-26T09:58:18.288Z,36.13
2023-04-26T09:59:19.765Z,37.36
2023-04-26T10:00:21.732Z,36.09
2023-04-26T10:01:23.404Z,35.01
2023-04-26T10:02:26.911Z,34.62
2023-04-26T10:03:29.606Z,35.30
2023-04-26T10:04:32.182Z,35.58
2023-04-26T10:05:34.178Z,35.75
2023-04-26T10:06:36.067Z,34.82
2023-04-26T10:07:37.674Z,34.87
2023-04-26T10:08:39.466Z,34.76
2023-04-26T10:09:44.337Z,34.88
2023-04-26T10:10:46.723Z,35.64
2023-04-26T10:11:48.828Z,35.65
2023-04-26T10:12:50.319Z,36.55
2023-04-26T10:13:52.095Z,36.57
2023-04-26T10:14:53.859Z,36.60
2023-04-26T10:15:56.590Z,36.65
2023-04-26T10:16:58.328Z,36.16
2023-04-26T10:17:59.989Z,35.85
2023-04-26T10:19:01.658Z,36.08
2023-04-26T10:20:06.985Z,35.96
2023-04-26T10:21:11.256Z,36.00
2023-04-26T10:22:19.970Z,35.38
2023-04-26T10:23:26.561Z,34.29
2023-04-26T10:24:28.343Z,35.35
2023-04-26T10:25:40.586Z,34.84
2023-04-26T10:26:53.226Z,35.39
2023-04-26T10:27:54.747Z,35.85
2023-04-26T10:29:01.379Z,36.03
2023-04-26T10:30:04.637Z,35.46
2023-04-26T10:31:08.903Z,35.60
2023-04-26T10:32:12.076Z,35.97
2023-04-26T10:33:16.633Z,36.37
2023-04-26T10:34:20.026Z,36.70
2023-04-26T10:35:23.098Z,36.52
2023-04-26T10:36:24.582Z,36.58
2023-04-26T10:37:26.141Z,36.14
2023-04-26T10:38:27.609Z,36.25
2023-04-26T10:39:29.927Z,35.67
2023-04-26T10:40:33.955Z,35.73
2023-04-26T10:41:37.083Z,35.74
2023-04-26T10:42:41.430Z,36.79
2023-04-26T10:43:43.135Z,37.49
2023-04-26T10:44:45.832Z,36.50
2023-04-26T10:45:48.374Z,35.88
2023-04-26T10:46:52.488Z,35.46
2023-04-26T10:48:19.269Z,35.84
2023-04-26T10:49:24.965Z,36.26
2023-04-26T10:50:27.896Z,36.63
2023-04-26T10:51:29.663Z,37.72
2023-04-26T10:52:31.445Z,36.84
2023-04-26T10:53:53.793Z,35.85
2023-04-26T10:54:59.846Z,35.80
2023-04-26T10:56:01.338Z,35.17
2023-04-26T10:57:02.935Z,35.81
2023-04-26T10:58:30.933Z,35.27
2023-04-26T10:59:40.262Z,35.74
2023-04-26T11:01:19.394Z,35.45
2023-04-26T11:02:53.370Z,35.07
2023-04-26T11:03:58.746Z,36.23
2023-04-26T11:05:02.818Z,35.39
2023-04-26T11:06:10.097Z,34.87
2023-04-26T11:07:14.050Z,35.26
2023-04-26T11:08:16.653Z,34.71
2023-04-26T11:09:40.934Z,34.08
2023-04-26T11:10:43.970Z,34.59
2023-04-26T11:11:55.667Z,34.98
2023-04-26T11:13:03.246Z,34.79
2023-04-26T11:14:05.635Z,34.22
2023-04-26T11:15:07.541Z,34.48
2023-04-26T11:16:10.967Z,34.46
2023-04-26T11:17:13.192Z,35.45
2023-04-26T11:18:19.545Z,33.95
2023-04-26T11:19:21.073Z,33.57
2023-04-26T11:20:22.818Z,33.17
2023-04-26T11:21:26.923Z,33.51
2023-04-26T11:22:29.927Z,33.31
2023-04-26T11:23:32.035Z,33.28
2023-04-26T11:24:38.838Z,33.51
2023-04-26T11:25:40.425Z,33.87
2023-04-26T11:26:41.947Z,33.89
2023-04-26T11:27:43.798Z,34.02
2023-04-26T11:28:46.498Z,33.19
2023-04-26T11:29:47.945Z,34.31
2023-04-26T11:30:50.514Z,34.41
2023-04-26T11:31:56.292Z,34.00
2023-04-26T11:32:59.355Z,33.58
2023-04-26T11:34:07.019Z,33.77
2023-04-26T11:35:09.330Z,33.35
2023-04-26T11:36:12.031Z,32.80
2023-04-26T11:37:13.515Z,32.18
2023-04-26T11:38:15.769Z,32.25
2023-04-26T11:39:20.558Z,32.32
2023-04-26T11:40:22.372Z,32.56
2023-04-26T11:41:24.648Z,33.24
2023-04-26T11:42:26.689Z,34.41
2023-04-26T11:43:40.558Z,34.31
2023-04-26T11:44:42.118Z,33.58
2023-04-26T11:45:43.622Z,33.14
2023-04-26T11:46:48.237Z,32.67
2023-04-26T11:47:50.326Z,31.97
2023-04-26T11:48:52.346Z,30.81
2023-04-26T11:49:54.128Z,31.57
2023-04-26T11:50:58.852Z,32.04
2023-04-26T11:52:00.693Z,31.43
2023-04-26T11:53:04.969Z,30.95
2023-04-26T11:54:06.396Z,30.93
2023-04-26T11:55:10.319Z,30.98
2023-04-26T11:56:19.664Z,31.00
2023-04-26T11:57:21.168Z,31.31
2023-04-26T11:58:22.629Z,30.91
2023-04-26T11:59:29.169Z,30.48
2023-04-26T12:00:30.799Z,31.38
2023-04-26T12:01:33.037Z,30.51
2023-04-26T12:02:36.083Z,30.09
2023-04-26T12:03:37.916Z,30.44
2023-04-26T12:04:41.118Z,31.08
2023-04-26T12:05:43.020Z,31.04
2023-04-26T12:06:46.219Z,30.57
2023-04-26T12:07:56.705Z,30.47
2023-04-26T12:08:58.548Z,31.32
2023-04-26T12:10:14.137Z,31.38
2023-04-26T12:11:17.877Z,31.12
2023-04-26T12:12:19.556Z,31.75
2023-04-26T12:13:21.077Z,31.68
2023-04-26T12:14:23.134Z,31.87
2023-04-26T12:15:28.600Z,32.23
2023-04-26T12:16:30.375Z,32.27
2023-04-26T12:17:32.011Z,32.75
2023-04-26T12:18:33.655Z,33.17
2023-04-26T12:19:36.761Z,32.28
2023-04-26T12:20:41.433Z,32.54
2023-04-26T12:21:44.052Z,32.38
2023-04-26T12:23:17.885Z,31.45
2023-04-26T12:24:37.038Z,31.55
2023-04-26T12:25:40.523Z,31.83
2023-04-26T12:26:44.465Z,32.50
2023-04-26T12:27:46.227Z,32.08
2023-04-26T12:28:47.853Z,32.46
2023-04-26T12:29:49.307Z,30.79
2023-04-26T12:30:51.494Z,31.49
2023-04-26T12:31:52.995Z,30.02
2023-04-26T12:33:00.058Z,29.99
2023-04-26T12:34:04.378Z,30.21
2023-04-26T12:35:06.916Z,30.11
2023-04-26T12:36:13.062Z,30.30
2023-04-26T12:37:14.505Z,30.94
2023-04-26T12:38:16.045Z,30.15
2023-04-26T12:39:17.519Z,29.83
2023-04-26T12:40:20.203Z,28.96
2023-04-26T12:41:22.032Z,29.47
2023-04-26T12:42:23.540Z,30.28
2023-04-26T12:43:26.308Z,30.80
2023-04-26T12:44:28.293Z,30.40
2023-04-26T12:45:29.887Z,30.11
2023-04-26T12:46:31.752Z,30.89
2023-04-26T12:47:33.571Z,29.12
2023-04-26T12:48:35.159Z,29.51
2023-04-26T12:49:36.634Z,29.29
2023-04-26T12:50:38.039Z,28.89
2023-04-26T12:51:39.525Z,28.88
2023-04-26T12:52:43.372Z,28.93
2023-04-26T12:53:44.811Z,30.02
2023-04-26T12:54:47.114Z,28.92
2023-04-26T12:55:48.639Z,28.74
2023-04-26T12:56:50.128Z,29.37
2023-04-26T12:57:51.531Z,30.17
2023-04-26T12:58:53.134Z,30.08
2023-04-26T12:59:54.760Z,31.21
2023-04-26T13:00:56.876Z,30.39
2023-04-26T13:01:58.449Z,30.89
2023-04-26T13:03:00.132Z,30.78
2023-04-26T13:04:04.752Z,30.71
2023-04-26T13:05:07.607Z,31.02
2023-04-26T13:06:09.401Z,29.91
2023-04-26T13:07:11.004Z,29.47
2023-04-26T13:08:12.601Z,29.29
2023-04-26T13:09:14.456Z,29.32
2023-04-26T13:10:16.026Z,29.28
2023-04-26T13:11:18.244Z,29.16
2023-04-26T13:12:19.850Z,29.80
2023-04-26T13:13:26.340Z,31.18
2023-04-26T13:14:34.033Z,31.19
2023-04-26T13:15:36.314Z,30.90
2023-04-26T13:16:42.342Z,31.21
2023-04-26T13:17:44.443Z,31.21
2023-04-26T13:18:46.571Z,31.93
2023-04-26T13:19:48.075Z,32.15
2023-04-26T13:20:49.897Z,31.91
2023-04-26T13:21:53.094Z,31.72
2023-04-26T13:22:54.607Z,31.50
2023-04-26T13:23:56.165Z,31.08
2023-04-26T13:24:57.662Z,32.52
2023-04-26T13:25:59.453Z,32.83
2023-04-26T13:27:01.931Z,32.21
2023-04-26T13:28:03.698Z,31.49
2023-04-26T13:29:05.181Z,31.96
2023-04-26T13:30:07.299Z,31.72